Time;durP1;ratioP1;P1;durP2;ratioP2;P2;SDS_P1;SDS_P2;PMS_P1;PMS_P2;Temp;Humidity;BMP_temperature;BMP_pressure;BME280_temperature;BME280_humidity;BME280_pressure;Samples;Min_cycle;Max_cycle;Signal;HPM_P1;HPM_P2
2022/10/20 00:01:47;;;;;;;1999.90;999.90;;;;;;;14.24;100.00;98686.81;4973062;28;20110;-74
2022/10/20 00:04:13;;;;;;;1999.90;999.90;;;;;;;14.36;100.00;98692.69;4970777;28;20027;-74
2022/10/20 00:06:38;;;;;;;1999.90;999.90;;;;;;;14.34;100.00;98694.94;4971906;28;20058;-74
2022/10/20 00:09:04;;;;;;;1999.90;999.90;;;;;;;14.30;100.00;98695.81;4970953;28;20102;-74
2022/10/20 00:11:30;;;;;;;1999.90;999.90;;;;;;;14.23;100.00;98696.19;4972175;28;20408;-74
2022/10/20 00:13:57;;;;;;;1999.90;999.90;;;;;;;14.23;100.00;98703.63;4971833;28;20027;-74
2022/10/20 00:16:24;;;;;;;1999.90;999.90;;;;;;;14.22;100.00;98704.75;4971774;28;20022;-75
2022/10/20 00:18:49;;;;;;;1999.90;999.90;;;;;;;14.15;100.00;98698.81;4971845;28;20042;-74
2022/10/20 00:21:18;;;;;;;1999.90;999.90;;;;;;;14.16;100.00;98703.22;4972100;28;20031;-74
2022/10/20 00:23:44;;;;;;;1999.90;999.90;;;;;;;14.18;100.00;98706.47;4971675;28;20026;-72
2022/10/20 00:26:13;;;;;;;1999.90;999.90;;;;;;;14.20;100.00;98701.47;4971718;28;20585;-71
2022/10/20 00:28:38;;;;;;;1999.90;999.90;;;;;;;14.22;100.00;98710.25;4971886;28;20030;-72
2022/10/20 00:31:05;;;;;;;1999.90;999.90;;;;;;;14.27;100.00;98704.66;4970428;28;20031;-72
2022/10/20 00:33:31;;;;;;;1999.90;999.90;;;;;;;14.21;100.00;98716.88;4971609;28;20031;-72
2022/10/20 00:36:01;;;;;;;1999.90;999.90;;;;;;;14.11;100.00;98719.78;4971711;28;20039;-72
2022/10/20 00:38:26;;;;;;;1999.90;999.90;;;;;;;14.19;100.00;98710.88;4971668;28;20026;-74
2022/10/20 00:40:51;;;;;;;1999.90;999.90;;;;;;;14.16;100.00;98711.47;4971856;28;20038;-74
2022/10/20 00:43:17;;;;;;;1999.90;999.90;;;;;;;14.17;100.00;98713.06;4970470;28;20031;-73
2022/10/20 00:45:49;;;;;;;1999.90;999.90;;;;;;;14.10;100.00;98716.22;4970235;28;20058;-74
2022/10/20 00:48:22;;;;;;;1999.90;999.90;;;;;;;14.00;100.00;98721.91;4971089;28;20041;-74
2022/10/20 00:50:53;;;;;;;1999.90;999.90;;;;;;;14.04;100.00;98717.41;4971051;28;20039;-74
2022/10/20 00:53:22;;;;;;;1999.90;999.90;;;;;;;13.97;100.00;98718.91;4973844;28;20035;-74
2022/10/20 00:55:49;;;;;;;1999.90;999.90;;;;;;;13.92;100.00;98714.28;4973639;28;20081;-74
2022/10/20 00:58:15;;;;;;;1999.90;999.90;;;;;;;13.87;100.00;98722.63;4974739;28;20034;-73
2022/10/20 01:00:43;;;;;;;1999.90;999.90;;;;;;;13.84;100.00;98718.56;4975217;28;20035;-73
2022/10/20 01:03:15;;;;;;;1999.90;999.90;;;;;;;13.80;100.00;98714.75;4974975;28;20051;-74
2022/10/20 01:05:40;;;;;;;1999.90;999.90;;;;;;;13.65;100.00;98717.72;4973906;28;20518;-74
2022/10/20 01:08:05;;;;;;;1999.90;999.90;;;;;;;13.62;100.00;98715.56;4975123;28;20046;-73
2022/10/20 01:10:39;;;;;;;1999.90;999.90;;;;;;;13.67;100.00;98707.25;4976600;28;20034;-74
2022/10/20 01:13:28;;;;;;;1999.90;999.90;;;;;;;13.68;100.00;98708.06;4981491;28;20072;-74
2022/10/20 01:16:11;;;;;;;1999.90;999.90;;;;;;;13.77;100.00;98700.78;4977555;28;20027;-74
2022/10/20 01:18:53;;;;;;;1999.90;999.90;;;;;;;13.86;100.00;98708.06;4973516;28;20500;-73
2022/10/20 01:21:33;;;;;;;1999.90;999.90;;;;;;;13.90;100.00;98706.34;4974783;28;20053;-74
2022/10/20 01:24:23;;;;;;;1999.90;999.90;;;;;;;13.84;100.00;98701.22;4974965;28;20043;-73
2022/10/20 01:27:04;;;;;;;1999.90;999.90;;;;;;;13.81;100.00;98696.31;4974671;28;20121;-74
2022/10/20 01:29:38;;;;;;;1999.90;999.90;;;;;;;13.80;100.00;98695.50;4973658;28;20042;-74
2022/10/20 01:32:15;;;;;;;1999.90;999.90;;;;;;;13.93;100.00;98692.00;4974700;28;20118;-74
2022/10/20 01:34:56;;;;;;;1999.90;999.90;;;;;;;13.83;100.00;98694.91;4974439;28;20488;-74
2022/10/20 01:37:31;;;;;;;1999.90;999.90;;;;;;;13.75;100.00;98692.81;4974668;28;20057;-74
2022/10/20 01:40:05;;;;;;;1999.90;999.90;;;;;;;13.51;100.00;98703.06;4974565;28;20051;-73
2022/10/20 01:42:30;;;;;;;1999.90;999.90;;;;;;;13.45;100.00;98701.50;4974899;28;20089;-74
2022/10/20 01:45:02;;;;;;;1999.90;999.90;;;;;;;13.36;100.00;98703.28;4975263;28;20432;-75
2022/10/20 01:47:29;;;;;;;1999.90;999.90;;;;;;;13.39;100.00;98709.00;4976029;28;20496;-74
2022/10/20 01:49:56;;;;;;;1999.90;999.90;;;;;;;13.37;100.00;98718.66;4975335;28;20046;-74
2022/10/20 01:52:22;;;;;;;1999.90;999.90;;;;;;;13.38;100.00;98715.59;4960503;28;20094;-74
2022/10/20 01:54:48;;;;;;;1999.90;999.90;;;;;;;13.40;100.00;98715.31;4954527;29;20098;-73
2022/10/20 01:57:53;;;;;;;1999.90;999.90;;;;;;;13.42;100.00;98718.59;4954967;29;20540;-73
2022/10/20 02:00:18;;;;;;;1999.90;999.90;;;;;;;13.43;100.00;98714.72;4954565;29;20501;-74
2022/10/20 02:02:55;;;;;;;1999.90;999.90;;;;;;;13.48;100.00;98714.66;4954873;28;20115;-73
2022/10/20 02:05:45;;;;;;;1999.90;999.90;;;;;;;13.51;100.00;98722.31;4954070;29;20035;-74
2022/10/20 02:08:29;;;;;;;1999.90;999.90;;;;;;;13.58;100.00;98720.03;4954715;29;20055;-72
2022/10/20 02:10:58;;;;;;;1999.90;999.90;;;;;;;13.63;100.00;98724.63;4955612;29;20050;-73
2022/10/20 02:13:25;;;;;;;1999.90;999.90;;;;;;;13.63;100.00;98711.69;4954413;29;20031;-74
2022/10/20 02:15:54;;;;;;;1999.90;999.90;;;;;;;13.64;100.00;98729.00;4954177;28;20032;-74
2022/10/20 02:18:30;;;;;;;1999.90;999.90;;;;;;;13.67;100.00;98723.75;4954383;29;20051;-74
2022/10/20 02:20:59;;;;;;;1999.90;999.90;;;;;;;13.72;100.00;98715.41;4954433;29;20061;-74
2022/10/20 02:23:27;;;;;;;1999.90;999.90;;;;;;;13.75;100.00;98720.31;4954301;29;20095;-74
2022/10/20 02:25:54;;;;;;;1999.90;999.90;;;;;;;13.80;100.00;98725.75;4954257;29;20035;-74
2022/10/20 02:28:21;;;;;;;1999.90;999.90;;;;;;;13.75;100.00;98731.31;4954366;28;20480;-74
2022/10/20 02:30:46;;;;;;;1999.90;999.90;;;;;;;13.68;100.00;98732.81;4954134;29;20034;-74
2022/10/20 02:33:13;;;;;;;1999.90;999.90;;;;;;;13.68;100.00;98730.88;4953988;29;20031;-72
2022/10/20 02:35:47;;;;;;;1999.90;999.90;;;;;;;13.68;100.00;98725.38;4953541;29;20722;-74
2022/10/20 02:38:12;;;;;;;1999.90;999.90;;;;;;;13.67;100.00;98733.91;4953366;29;20027;-74
2022/10/20 02:40:38;;;;;;;1999.90;999.90;;;;;;;13.68;100.00;98752.06;4954140;29;20147;-73
2022/10/20 02:43:03;;;;;;;1999.90;999.90;;;;;;;13.68;100.00;98736.38;4953636;29;20496;-74
2022/10/20 02:45:28;;;;;;;1999.90;999.90;;;;;;;13.61;100.00;98735.91;4953849;29;20043;-74
2022/10/20 02:47:53;;;;;;;1999.90;999.90;;;;;;;13.62;100.00;98732.06;4953636;29;20082;-73
2022/10/20 02:50:20;;;;;;;1999.90;999.90;;;;;;;13.62;100.00;98734.81;4953478;29;20031;-73
2022/10/20 02:52:45;;;;;;;1999.90;999.90;;;;;;;13.56;100.00;98744.25;4953831;29;20031;-73
2022/10/20 02:55:11;;;;;;;1999.90;999.90;;;;;;;13.57;100.00;98737.63;4952213;29;20031;-73
2022/10/20 02:57:36;;;;;;;1999.90;999.90;;;;;;;13.51;100.00;98733.31;4953972;29;20031;-74
2022/10/20 03:00:04;;;;;;;1999.90;999.90;;;;;;;13.40;100.00;98727.13;4953829;29;20027;-74
2022/10/20 03:02:29;;;;;;;1999.90;999.90;;;;;;;13.33;100.00;98728.59;4953700;29;20113;-73
2022/10/20 03:04:54;;;;;;;1999.90;999.90;;;;;;;13.45;100.00;98737.22;4953706;29;20129;-73
2022/10/20 03:07:19;;;;;;;1999.90;999.90;;;;;;;13.42;100.00;98740.56;4953511;28;20051;-73
2022/10/20 03:09:45;;;;;;;1999.90;999.90;;;;;;;13.32;100.00;98733.28;4953547;29;20118;-74
2022/10/20 03:12:10;;;;;;;1999.90;999.90;;;;;;;13.26;100.00;98744.63;4953883;29;20027;-74
2022/10/20 03:14:35;;;;;;;1999.90;999.90;;;;;;;13.29;100.00;98735.78;4953150;28;20122;-74
2022/10/20 03:17:01;;;;;;;1999.90;999.90;;;;;;;13.32;100.00;98746.19;4953624;28;20024;-74
2022/10/20 03:19:26;;;;;;;1999.90;999.90;;;;;;;13.29;100.00;98755.00;4954408;28;20063;-73
2022/10/20 03:21:51;;;;;;;1999.90;999.90;;;;;;;13.28;100.00;98747.91;4957630;28;20043;-74
2022/10/20 03:24:17;;;;;;;1999.90;999.90;;;;;;;13.26;100.00;98745.44;4959688;29;20032;-74
2022/10/20 03:26:42;;;;;;;1999.90;999.90;;;;;;;13.27;100.00;98747.09;4957271;29;20062;-74
2022/10/20 03:29:08;;;;;;;1999.90;999.90;;;;;;;13.26;100.00;98745.44;4954360;28;20528;-74
2022/10/20 03:31:33;;;;;;;1999.90;999.90;;;;;;;13.26;100.00;98739.94;4953525;28;20027;-74
2022/10/20 03:33:58;;;;;;;1999.90;999.90;;;;;;;13.28;100.00;98743.19;4951963;29;20848;-74
2022/10/20 03:36:24;;;;;;;1999.90;999.90;;;;;;;13.20;100.00;98741.13;4966191;28;20114;-74
2022/10/20 03:38:49;;;;;;;1999.90;999.90;;;;;;;13.22;100.00;98736.13;4977555;28;20022;-75
2022/10/20 03:41:14;;;;;;;1999.90;999.90;;;;;;;13.23;100.00;98743.28;4973050;28;20038;-74
2022/10/20 03:43:40;;;;;;;1999.90;999.90;;;;;;;13.28;100.00;98745.94;4971911;28;20039;-74
2022/10/20 03:46:08;;;;;;;1999.90;999.90;;;;;;;13.23;100.00;98750.69;4971877;28;20109;-74
2022/10/20 03:48:34;;;;;;;1999.90;999.90;;;;;;;13.26;100.00;98755.59;4971931;28;20030;-74
2022/10/20 03:51:01;;;;;;;1999.90;999.90;;;;;;;13.24;100.00;98764.16;4972277;28;20104;-74
2022/10/20 03:53:27;;;;;;;1999.90;999.90;;;;;;;13.18;100.00;98759.84;4971210;28;20034;-74
2022/10/20 03:55:52;;;;;;;1999.90;999.90;;;;;;;13.19;100.00;98764.19;4952775;28;20126;-74
2022/10/20 03:58:18;;;;;;;1999.90;999.90;;;;;;;13.13;100.00;98757.13;4952806;29;20169;-75
2022/10/20 04:00:44;;;;;;;1999.90;999.90;;;;;;;13.23;100.00;98761.69;4952848;28;20078;-74
2022/10/20 04:03:09;;;;;;;1999.90;999.90;;;;;;;13.18;100.00;98759.84;4952659;29;20081;-73
2022/10/20 04:05:34;;;;;;;1999.90;999.90;;;;;;;13.20;100.00;98757.59;4952427;29;20405;-74
2022/10/20 04:08:00;;;;;;;1999.90;999.90;;;;;;;13.16;100.00;98766.72;4952087;29;20698;-73
2022/10/20 04:10:25;;;;;;;1999.90;999.90;;;;;;;13.20;100.00;98762.28;4952443;29;20043;-74
2022/10/20 04:12:50;;;;;;;1999.90;999.90;;;;;;;13.11;100.00;98756.59;4952496;29;20039;-75
2022/10/20 04:15:17;;;;;;;1999.90;999.90;;;;;;;13.11;100.00;98758.53;4952388;29;20389;-73
2022/10/20 04:17:43;;;;;;;1999.90;999.90;;;;;;;13.09;100.00;98760.75;4952254;29;20035;-74
2022/10/20 04:20:09;;;;;;;1999.90;999.90;;;;;;;13.08;100.00;98759.94;4952420;29;20086;-74
2022/10/20 04:22:35;;;;;;;1999.90;999.90;;;;;;;13.11;100.00;98758.53;4952168;29;20496;-73
2022/10/20 04:25:01;;;;;;;1999.90;999.90;;;;;;;13.08;100.00;98759.09;4957752;28;20026;-73
2022/10/20 04:27:27;;;;;;;1999.90;999.90;;;;;;;13.04;100.00;98763.50;4970786;28;20511;-74
2022/10/20 04:29:52;;;;;;;1999.90;999.90;;;;;;;12.97;100.00;98768.56;4971484;28;20135;-74
2022/10/20 04:32:17;;;;;;;1999.90;999.90;;;;;;;12.97;100.00;98765.81;4969804;28;20066;-73
2022/10/20 04:34:43;;;;;;;1999.90;999.90;;;;;;;12.96;100.00;98773.22;4971760;28;20054;-74
2022/10/20 04:37:08;;;;;;;1999.90;999.90;;;;;;;12.85;100.00;98767.00;4971614;28;20034;-74
2022/10/20 04:39:33;;;;;;;1999.90;999.90;;;;;;;12.89;100.00;98762.59;4971255;28;20066;-73
2022/10/20 04:41:59;;;;;;;1999.90;999.90;;;;;;;12.82;100.00;98777.75;4972097;28;20488;-73
2022/10/20 04:44:25;;;;;;;1999.90;999.90;;;;;;;12.81;100.00;98770.63;4965264;28;20612;-73
2022/10/20 04:46:52;;;;;;;1999.90;999.90;;;;;;;12.80;100.00;98767.06;4952226;29;20030;-74
2022/10/20 04:49:17;;;;;;;1999.90;999.90;;;;;;;12.74;100.00;98765.50;4952537;28;20078;-73
2022/10/20 04:51:43;;;;;;;1999.90;999.90;;;;;;;12.78;100.00;98761.03;4951126;29;20075;-74
2022/10/20 04:54:08;;;;;;;1999.90;999.90;;;;;;;12.67;100.00;98762.25;4952148;29;20062;-73
2022/10/20 04:56:33;;;;;;;1999.90;999.90;;;;;;;12.66;100.00;98757.84;4952441;28;20452;-73
2022/10/20 04:58:59;;;;;;;1999.90;999.90;;;;;;;12.70;100.00;98758.09;4951698;29;20086;-74
2022/10/20 05:01:27;;;;;;;1999.90;999.90;;;;;;;12.68;100.00;98754.84;4951065;29;20031;-73
2022/10/20 05:03:53;;;;;;;1999.90;999.90;;;;;;;12.67;100.00;98747.69;4951992;29;20039;-73
2022/10/20 05:06:27;;;;;;;1999.90;999.90;;;;;;;12.67;100.00;98743.03;4952055;28;20105;-73
2022/10/20 05:08:55;;;;;;;1999.90;999.90;;;;;;;12.67;100.00;98750.44;4970956;28;20484;-74
2022/10/20 05:11:22;;;;;;;1999.90;999.90;;;;;;;12.54;100.00;98751.13;4971514;28;20050;-74
2022/10/20 05:13:48;;;;;;;1999.90;999.90;;;;;;;12.56;100.00;98752.47;4969127;28;20031;-73
2022/10/20 05:16:13;;;;;;;1999.90;999.90;;;;;;;12.47;100.00;98751.44;4952009;29;20032;-73
2022/10/20 05:18:39;;;;;;;1999.90;999.90;;;;;;;12.54;100.00;98751.94;4952049;28;20067;-73
2022/10/20 05:21:14;;;;;;;1999.90;999.90;;;;;;;12.52;100.00;98758.81;4952034;29;20041;-76
2022/10/20 05:23:39;;;;;;;1999.90;999.90;;;;;;;12.48;100.00;98757.75;4951832;28;20082;-74
2022/10/20 05:26:07;;;;;;;1999.90;999.90;;;;;;;12.40;100.00;98759.22;4951948;28;20122;-74
2022/10/20 05:28:33;;;;;;;1999.90;999.90;;;;;;;12.41;100.00;98763.56;4952015;29;20122;-73
2022/10/20 05:31:03;;;;;;;1999.90;999.90;;;;;;;12.32;100.00;98773.53;4952638;28;20155;-74
2022/10/20 05:33:28;;;;;;;1999.90;999.90;;;;;;;12.38;100.00;98777.88;4957352;28;20091;-75
2022/10/20 05:35:53;;;;;;;1999.90;999.90;;;;;;;12.32;100.00;98768.03;4955769;29;20447;-74
2022/10/20 05:38:19;;;;;;;1999.90;999.90;;;;;;;12.28;100.00;98777.94;4953078;28;20035;-74
2022/10/20 05:40:44;;;;;;;1999.90;999.90;;;;;;;12.27;100.00;98771.66;4955474;28;20106;-74
2022/10/20 05:43:09;;;;;;;1999.90;999.90;;;;;;;12.28;100.00;98780.69;4954446;29;20029;-74
2022/10/20 05:45:35;;;;;;;1999.90;999.90;;;;;;;12.34;100.00;98794.06;4954488;29;20027;-74
2022/10/20 05:48:00;;;;;;;1999.90;999.90;;;;;;;12.33;100.00;98797.13;4955122;29;20039;-75
2022/10/20 05:50:25;;;;;;;1999.90;999.90;;;;;;;12.29;100.00;98801.53;4955918;29;20035;-74
2022/10/20 05:52:51;;;;;;;1999.90;999.90;;;;;;;12.09;100.00;98796.19;4955574;29;20362;-74
2022/10/20 05:55:17;;;;;;;1999.90;999.90;;;;;;;12.13;100.00;98809.06;4954763;29;20032;-74
2022/10/20 05:57:42;;;;;;;1999.90;999.90;;;;;;;12.02;100.00;98814.88;4953631;28;20130;-73
2022/10/20 06:00:08;;;;;;;1999.90;999.90;;;;;;;12.09;100.00;98816.19;4954687;29;20455;-74
2022/10/20 06:02:33;;;;;;;1999.90;999.90;;;;;;;12.05;100.00;98819.81;4954551;28;20027;-72
2022/10/20 06:04:59;;;;;;;1999.90;999.90;;;;;;;12.06;100.00;98818.72;4962754;28;20060;-73
2022/10/20 06:07:24;;;;;;;1999.90;999.90;;;;;;;12.08;100.00;98817.31;4985593;28;20496;-74
2022/10/20 06:09:50;;;;;;;1999.90;999.90;;;;;;;11.99;100.00;98820.94;4990760;28;20040;-73
2022/10/20 06:12:15;;;;;;;1999.90;999.90;;;;;;;12.08;100.00;98821.97;4993631;28;20081;-73
2022/10/20 06:14:40;;;;;;;1999.90;999.90;;;;;;;12.11;100.00;98824.16;4993133;28;20046;-72
2022/10/20 06:17:05;;;;;;;1999.90;999.90;;;;;;;12.09;100.00;98829.13;4992936;28;20061;-72
2022/10/20 06:19:31;;;;;;;1999.90;999.90;;;;;;;12.15;100.00;98822.50;4984629;28;20061;-73
2022/10/20 06:21:56;;;;;;;1999.90;999.90;;;;;;;12.19;100.00;98826.28;4993212;28;20399;-73
2022/10/20 06:24:21;;;;;;;1999.90;999.90;;;;;;;12.17;100.00;98817.53;4992803;28;20088;-73
2022/10/20 06:26:47;;;;;;;1999.90;999.90;;;;;;;12.27;100.00;98828.44;4993099;28;20097;-74
2022/10/20 06:29:15;;;;;;;1999.90;999.90;;;;;;;12.24;100.00;98834.50;4992492;28;20027;-73
2022/10/20 06:31:46;;;;;;;1999.90;999.90;;;;;;;12.25;100.00;98849.84;4991777;28;20522;-72
2022/10/20 06:34:20;;;;;;;1999.90;999.90;;;;;;;12.21;100.00;98848.78;4992719;28;20499;-74
2022/10/20 06:36:46;;;;;;;1999.90;999.90;;;;;;;12.27;100.00;98844.91;4992805;28;20026;-73
2022/10/20 06:39:15;;;;;;;1999.90;999.90;;;;;;;12.30;100.00;98855.31;4991304;28;20065;-73
2022/10/20 06:41:42;;;;;;;1999.90;999.90;;;;;;;12.35;100.00;98858.00;4992442;28;20030;-73
2022/10/20 06:44:07;;;;;;;1999.90;999.90;;;;;;;12.30;100.00;98850.66;4992572;28;20022;-74
2022/10/20 06:46:35;;;;;;;1999.90;999.90;;;;;;;12.39;100.00;98845.38;4992820;28;20030;-74
2022/10/20 06:49:04;;;;;;;1999.90;999.90;;;;;;;12.33;100.00;98857.47;4992477;28;20034;-74
2022/10/20 06:51:30;;;;;;;1999.90;999.90;;;;;;;12.40;100.00;98852.50;4993968;28;20042;-73
2022/10/20 06:53:55;;;;;;;1999.90;999.90;;;;;;;12.40;100.00;98847.00;4995386;28;20032;-74
2022/10/20 06:56:23;;;;;;;1999.90;999.90;;;;;;;12.40;100.00;98843.44;4994051;28;20036;-74
2022/10/20 06:58:51;;;;;;;1999.90;999.90;;;;;;;12.46;100.00;98850.53;4992328;28;20022;-74
2022/10/20 07:01:29;;;;;;;1999.90;999.90;;;;;;;12.40;100.00;98862.66;4992534;28;20054;-73
2022/10/20 07:03:57;;;;;;;1999.90;999.90;;;;;;;12.48;100.00;98853.81;4992295;28;20042;-74
2022/10/20 07:06:31;;;;;;;1999.90;999.90;;;;;;;12.46;100.00;98854.09;4992127;28;20030;-74
2022/10/20 07:08:57;;;;;;;1999.90;999.90;;;;;;;12.63;100.00;98853.69;4992132;28;20134;-73
2022/10/20 07:11:27;;;;;;;1999.90;999.90;;;;;;;12.78;100.00;98857.13;4992417;28;20113;-74
2022/10/20 07:13:54;;;;;;;1999.90;999.90;;;;;;;12.78;100.00;98854.38;4992227;28;20094;-73
2022/10/20 07:16:21;;;;;;;1999.90;999.90;;;;;;;12.70;100.00;98857.75;4990659;28;20029;-73
2022/10/20 07:18:47;;;;;;;1999.90;999.90;;;;;;;12.85;100.00;98863.13;4991002;28;20026;-74
2022/10/20 07:21:18;;;;;;;1999.90;999.90;;;;;;;12.85;100.00;98854.06;4993497;28;20034;-74
2022/10/20 07:23:45;;;;;;;1999.90;999.90;;;;;;;12.79;100.00;98860.69;4992127;28;20515;-73
2022/10/20 07:26:14;;;;;;;1999.90;999.90;;;;;;;12.79;100.00;98856.03;4992437;28;20031;-73
2022/10/20 07:28:43;;;;;;;1999.90;999.90;;;;;;;12.72;100.00;98855.53;4992385;28;20039;-73
2022/10/20 07:31:14;;;;;;;1999.90;999.90;;;;;;;12.82;100.00;98855.44;4992266;28;20030;-73
2022/10/20 07:33:40;;;;;;;1999.90;999.90;;;;;;;12.75;100.00;98854.94;4992463;28;20033;-74
2022/10/20 07:36:18;;;;;;;1999.90;999.90;;;;;;;12.88;100.00;98848.81;4992333;28;20030;-73
2022/10/20 07:38:44;;;;;;;1999.90;999.90;;;;;;;12.94;100.00;98852.31;4993707;28;20030;-73
2022/10/20 07:41:10;;;;;;;1999.90;999.90;;;;;;;12.94;100.00;98865.25;4995217;28;20033;-73
2022/10/20 07:43:36;;;;;;;1999.90;999.90;;;;;;;13.02;100.00;98864.63;4997338;28;20026;-74
2022/10/20 07:46:03;;;;;;;1999.90;999.90;;;;;;;12.99;100.00;98863.28;4992840;28;20886;-73
2022/10/20 07:48:28;;;;;;;1999.90;999.90;;;;;;;13.04;100.00;98856.91;4991872;28;20030;-73
2022/10/20 07:50:53;;;;;;;1999.90;999.90;;;;;;;13.02;100.00;98870.13;4990257;28;20049;-73
2022/10/20 07:53:18;;;;;;;1999.90;999.90;;;;;;;13.03;100.00;98855.28;4990460;28;20541;-73
2022/10/20 07:55:44;;;;;;;1999.90;999.90;;;;;;;13.27;100.00;98864.41;4991597;28;20048;-74
2022/10/20 07:58:10;;;;;;;1999.90;999.90;;;;;;;13.23;100.00;98866.09;4991732;28;20377;-73
2022/10/20 08:00:36;;;;;;;1999.90;999.90;;;;;;;13.38;100.00;98863.19;4991582;28;20022;-73
2022/10/20 08:03:01;;;;;;;1999.90;999.90;;;;;;;13.44;100.00;98861.22;4989157;28;20022;-72
2022/10/20 08:05:28;;;;;;;1999.90;999.90;;;;;;;13.56;100.00;98865.19;4991210;28;20040;-73
2022/10/20 08:07:53;;;;;;;1999.90;999.90;;;;;;;13.68;100.00;98857.34;4991339;28;20053;-73
2022/10/20 08:10:19;;;;;;;1999.90;999.90;;;;;;;13.60;100.00;98860.75;4991001;28;20030;-74
2022/10/20 08:12:44;;;;;;;1999.90;999.90;;;;;;;13.77;100.00;98872.09;4991746;28;20073;-74
2022/10/20 08:15:10;;;;;;;1999.90;999.90;;;;;;;13.95;100.00;98865.00;4991078;28;20030;-74
2022/10/20 08:17:35;;;;;;;1999.90;999.90;;;;;;;13.90;100.00;98859.56;4991442;28;20113;-73
2022/10/20 08:20:00;;;;;;;1999.90;999.90;;;;;;;13.99;100.00;98863.28;4991211;28;20117;-73
2022/10/20 08:22:26;;;;;;;1999.90;999.90;;;;;;;14.19;100.00;98862.22;4987266;28;20058;-73
2022/10/20 08:24:52;;;;;;;1999.90;999.90;;;;;;;14.46;100.00;98856.88;4980838;28;20058;-73
2022/10/20 08:27:18;;;;;;;1999.90;999.90;;;;;;;14.81;100.00;98861.00;4980339;28;20019;-74
2022/10/20 08:29:43;;;;;;;1999.90;999.90;;;;;;;14.99;99.82;98866.50;4986546;28;20029;-74
2022/10/20 08:32:11;;;;;;;1999.90;999.90;;;;;;;15.14;98.23;98870.09;4976807;28;20473;-73
2022/10/20 08:34:36;;;;;;;1999.90;999.90;;;;;;;14.88;100.00;98862.25;4980120;28;21121;-73
2022/10/20 08:37:02;;;;;;;1999.90;999.90;;;;;;;14.70;100.00;98867.78;4972358;28;20502;-74
2022/10/20 08:39:27;;;;;;;1999.90;999.90;;;;;;;14.63;99.34;98857.16;4979046;28;20019;-74
2022/10/20 08:41:53;;;;;;;1999.90;999.90;;;;;;;14.65;99.55;98849.44;4977183;28;20039;-74
2022/10/20 08:44:24;;;;;;;1999.90;999.90;;;;;;;14.66;100.00;98844.75;4980295;28;20447;-74
2022/10/20 08:46:50;;;;;;;1999.90;999.90;;;;;;;14.70;98.93;98849.34;4979080;28;20137;-74
2022/10/20 08:49:28;;;;;;;1999.90;999.90;;;;;;;14.91;98.07;98850.63;4980119;28;20443;-74
2022/10/20 08:51:53;;;;;;;1999.90;999.90;;;;;;;14.99;97.06;98851.88;4977279;28;20424;-73
2022/10/20 08:54:19;;;;;;;1999.90;999.90;;;;;;;14.83;97.34;98845.81;4983819;28;20027;-72
2022/10/20 08:56:45;;;;;;;1999.90;999.90;;;;;;;14.88;96.62;98831.94;4979708;28;20154;-74
2022/10/20 08:59:24;;;;;;;1999.90;999.90;;;;;;;14.97;96.28;98830.13;4981487;28;20037;-73
2022/10/20 09:01:49;;;;;;;1999.90;999.90;;;;;;;15.15;94.91;98846.94;4978929;28;20489;-75
2022/10/20 09:04:19;;;;;;;1999.90;999.90;;;;;;;14.91;96.29;98841.56;4980793;28;20117;-74
2022/10/20 09:06:49;;;;;;;1999.90;999.90;;;;;;;15.20;95.03;98844.88;4981374;28;20109;-73
2022/10/20 09:09:20;;;;;;;1999.90;999.90;;;;;;;15.01;95.41;98830.34;4976566;28;20047;-73
2022/10/20 09:11:46;;;;;;;1999.90;999.90;;;;;;;14.96;95.37;98833.22;4982396;28;20082;-74
2022/10/20 09:14:17;;;;;;;1999.90;999.90;;;;;;;14.75;96.29;98843.75;4984212;28;20022;-74
2022/10/20 09:16:45;;;;;;;1999.90;999.90;;;;;;;14.86;97.09;98836.94;4981940;28;20027;-74
2022/10/20 09:19:24;;;;;;;1999.90;999.90;;;;;;;14.51;97.36;98833.94;4979358;28;20034;-75
2022/10/20 09:21:53;;;;;;;1999.90;999.90;;;;;;;15.12;93.63;98836.50;4982216;28;20365;-74
2022/10/20 09:24:24;;;;;;;1999.90;999.90;;;;;;;15.37;91.26;98844.31;4976957;28;20089;-76
2022/10/20 09:26:50;;;;;;;1999.90;999.90;;;;;;;15.03;91.90;98839.94;4984532;28;20031;-75
2022/10/20 09:29:19;;;;;;;1999.90;999.90;;;;;;;14.96;92.48;98847.81;4975228;28;20034;-76
2022/10/20 09:31:49;;;;;;;1999.90;999.90;;;;;;;14.85;93.61;98835.31;4972121;28;20035;-76
2022/10/20 09:34:23;;;;;;;1999.90;999.90;;;;;;;14.86;94.48;98836.94;4975113;28;20038;-76
2022/10/20 09:37:01;;;;;;;1999.90;999.90;;;;;;;14.81;93.08;98837.03;4977959;28;20121;-75
2022/10/20 09:39:30;;;;;;;1999.90;999.90;;;;;;;14.64;94.89;98835.94;4979991;28;20038;-76
2022/10/20 09:42:22;;;;;;;1999.90;999.90;;;;;;;14.55;96.14;98827.56;4976672;28;20524;-75
2022/10/20 09:45:00;;;;;;;1999.90;999.90;;;;;;;14.76;94.91;98831.59;4973813;28;20035;-76
2022/10/20 09:47:27;;;;;;;1999.90;999.90;;;;;;;14.87;93.56;98835.03;4982215;28;20034;-76
2022/10/20 09:49:59;;;;;;;1999.90;999.90;;;;;;;14.82;92.00;98835.91;4982878;28;20050;-77
2022/10/20 09:52:39;;;;;;;1999.90;999.90;;;;;;;14.88;91.06;98831.13;4986736;28;20034;-75
2022/10/20 09:55:29;;;;;;;1999.90;999.90;;;;;;;15.06;89.28;98822.00;4976605;28;20052;-73
2022/10/20 09:57:56;;;;;;;1999.90;999.90;;;;;;;15.30;89.11;98827.34;4977166;28;20034;-73
2022/10/20 10:00:29;;;;;;;1999.90;999.90;;;;;;;15.56;86.36;98831.28;4980652;28;20034;-73
2022/10/20 10:03:23;;;;;;;1999.90;999.90;;;;;;;15.37;79.04;98822.25;4983028;28;20026;-74
2022/10/20 10:05:58;;;;;;;1999.90;999.90;;;;;;;15.18;80.29;98819.56;4975206;28;20485;-74
2022/10/20 10:08:40;;;;;;;1999.90;999.90;;;;;;;15.37;78.02;98816.75;4983207;28;20120;-74
2022/10/20 10:11:20;;;;;;;1999.90;999.90;;;;;;;15.72;76.09;98823.53;4981518;28;20062;-73
2022/10/20 10:13:51;;;;;;;1999.90;999.90;;;;;;;15.83;74.55;98820.22;4982752;28;20403;-74
2022/10/20 10:16:20;;;;;;;1999.90;999.90;;;;;;;16.20;72.81;98815.56;4984166;28;20010;-74
2022/10/20 10:18:57;;;;;;;1999.90;999.90;;;;;;;16.08;72.48;98813.34;4984637;28;20385;-74
2022/10/20 10:21:23;;;;;;;1999.90;999.90;;;;;;;16.06;72.30;98810.09;4983932;28;20077;-74
2022/10/20 10:23:54;;;;;;;1999.90;999.90;;;;;;;16.16;72.18;98811.81;4969050;28;20034;-74
2022/10/20 10:26:54;;;;;;;1999.90;999.90;;;;;;;16.34;70.83;98813.59;4982289;28;20027;-74
2022/10/20 10:29:24;;;;;;;1999.90;999.90;;;;;;;16.43;71.01;98806.19;4974819;28;20030;-75
2022/10/20 10:31:58;;;;;;;1999.90;999.90;;;;;;;16.46;70.52;98797.28;4982032;28;20038;-73
2022/10/20 10:34:31;;;;;;;1999.90;999.90;;;;;;;16.63;69.99;98796.63;4977054;28;20538;-74
2022/10/20 10:36:57;;;;;;;1999.90;999.90;;;;;;;16.28;70.32;98790.00;4982363;28;20058;-73
2022/10/20 10:39:22;;;;;;;1999.90;999.90;;;;;;;16.06;71.67;98788.00;4982936;28;20030;-74
2022/10/20 10:42:23;;;;;;;1999.90;999.90;;;;;;;16.10;71.46;98796.50;4980771;28;20396;-74
2022/10/20 10:45:07;;;;;;;1999.90;999.90;;;;;;;15.94;72.47;98787.72;4961258;28;20457;-73
2022/10/20 10:47:51;;;;;;;1999.90;999.90;;;;;;;15.79;72.85;98786.09;4978887;28;20519;-75
2022/10/20 10:50:19;;;;;;;1999.90;999.90;;;;;;;16.26;71.77;98789.47;4979631;28;20113;-73
2022/10/20 10:52:47;;;;;;;1999.90;999.90;;;;;;;16.24;71.76;98786.22;4980728;28;20034;-74
2022/10/20 10:55:20;;;;;;;1999.90;999.90;;;;;;;16.40;70.52;98779.19;4975973;28;20385;-74